createdAt,value
2022-08-05T00:01:36.390Z,100705.38
2022-08-05T00:04:17.089Z,100711.13
2022-08-05T00:06:44.148Z,100708.38
2022-08-05T00:09:12.618Z,100711.97
2022-08-05T00:11:49.159Z,100718.28
2022-08-05T00:14:22.712Z,100722.97
2022-08-05T00:16:55.764Z,100722.09
2022-08-05T00:19:23.316Z,100723.75
2022-08-05T00:21:51.741Z,100730.84
2022-08-05T00:24:24.675Z,100735.09
2022-08-05T00:26:58.614Z,100733.22
2022-08-05T00:29:26.040Z,100724.03
2022-08-05T00:32:12.410Z,100737.75
2022-08-05T00:35:03.455Z,100733.78
2022-08-05T00:37:50.695Z,100737.78
2022-08-05T00:40:17.850Z,100740.69
2022-08-05T00:42:54.818Z,100738.38
2022-08-05T00:45:28.248Z,100735.94
2022-08-05T00:48:09.279Z,100731.72
2022-08-05T00:50:37.326Z,100728.28
2022-08-05T00:53:16.070Z,100722.28
2022-08-05T00:55:50.796Z,100726.31
2022-08-05T00:58:19.141Z,100743.84
2022-08-05T01:00:47.357Z,100748.41
2022-08-05T01:03:22.899Z,100740.69
2022-08-05T01:05:54.510Z,100740.66
2022-08-05T01:08:41.597Z,100738.06
2022-08-05T01:11:22.525Z,100732.41
2022-08-05T01:14:09.416Z,100727.25
2022-08-05T01:17:00.463Z,100713.75
2022-08-05T01:19:57.058Z,100729.94
2022-08-05T01:22:46.844Z,100733.47
2022-08-05T01:25:53.792Z,100733.94
2022-08-05T01:28:39.419Z,100730.03
2022-08-05T01:31:27.245Z,100731.22
2022-08-05T01:34:13.005Z,100717.88
2022-08-05T01:36:46.974Z,100711.84
2022-08-05T01:39:16.283Z,100724.16
2022-08-05T01:42:03.452Z,100726.03
2022-08-05T01:44:34.452Z,100735.00
2022-08-05T01:47:02.609Z,100732.09
2022-08-05T01:50:01.494Z,100741.16
2022-08-05T01:52:21.456Z,100750.00
2022-08-05T01:54:58.427Z,100754.78
2022-08-05T01:58:09.845Z,100766.66
2022-08-05T02:00:18.876Z,100775.91
2022-08-05T02:02:53.708Z,100799.03
2022-08-05T02:05:23.714Z,100824.28
2022-08-05T02:07:59.828Z,100847.75
2022-08-05T02:10:32.578Z,100851.59
2022-08-05T02:13:27.754Z,100858.03
2022-08-05T02:16:16.307Z,100858.03
2022-08-05T02:18:50.940Z,100859.09
2022-08-05T02:21:20.344Z,100859.25
2022-08-05T02:23:50.656Z,100843.28
2022-08-05T02:26:23.206Z,100843.38
2022-08-05T02:28:55.297Z,100840.69
2022-08-05T02:31:28.308Z,100842.00
2022-08-05T02:33:58.652Z,100827.47
2022-08-05T02:36:27.254Z,100832.44
2022-08-05T02:38:55.935Z,100833.25
2022-08-05T02:41:28.958Z,100822.44
2022-08-05T02:44:11.984Z,100831.22
2022-08-05T02:46:53.179Z,100833.28
2022-08-05T02:49:35.768Z,100814.75
2022-08-05T02:52:06.414Z,100807.22
2022-08-05T02:54:37.037Z,100799.50
2022-08-05T02:57:10.320Z,100804.06
2022-08-05T02:59:55.736Z,100796.78
2022-08-05T03:02:29.425Z,100785.03
2022-08-05T03:04:57.695Z,100766.50
2022-08-05T03:07:48.519Z,100740.66
2022-08-05T03:10:15.677Z,100721.31
2022-08-05T03:12:49.506Z,100711.78
2022-08-05T03:15:18.682Z,100687.28
2022-08-05T03:17:45.348Z,100674.63
2022-08-05T03:20:13.433Z,100689.69
2022-08-05T03:22:44.038Z,100703.13
2022-08-05T03:25:33.476Z,100703.09
2022-08-05T03:28:07.208Z,100708.25
2022-08-05T03:30:35.816Z,100692.66
2022-08-05T03:33:03.859Z,100687.28
2022-08-05T03:35:41.130Z,100701.03
2022-08-05T03:38:11.100Z,100742.63
2022-08-05T03:40:45.304Z,100766.34
2022-08-05T03:44:08.040Z,100789.28
2022-08-05T03:46:03.958Z,100785.47
2022-08-05T03:48:30.992Z,100792.88
2022-08-05T03:52:37.822Z,100794.69
2022-08-05T03:55:34.250Z,100803.97
2022-08-05T03:56:58.909Z,100805.09
2022-08-05T03:59:47.262Z,100801.56
2022-08-05T04:02:37.961Z,100807.59
2022-08-05T04:05:12.965Z,100813.75
2022-08-05T04:07:57.165Z,100809.97
2022-08-05T04:10:33.249Z,100812.16
2022-08-05T04:13:04.743Z,100804.69
2022-08-05T04:15:32.953Z,100804.97
2022-08-05T04:18:09.738Z,100812.47
2022-08-05T04:20:38.606Z,100792.59
2022-08-05T04:23:12.458Z,100785.72
2022-08-05T04:25:57.715Z,100778.72
2022-08-05T04:28:30.659Z,100762.72
2022-08-05T04:31:01.094Z,100744.78
2022-08-05T04:34:18.479Z,100748.59
2022-08-05T04:36:45.872Z,100775.69
2022-08-05T04:39:02.401Z,100778.94
2022-08-05T04:41:36.575Z,100774.94
2022-08-05T04:44:09.311Z,100782.06
2022-08-05T04:46:36.791Z,100771.59
2022-08-05T04:49:03.547Z,100759.69
2022-08-05T04:51:30.416Z,100738.03
2022-08-05T04:53:57.579Z,100734.53
2022-08-05T04:56:34.628Z,100736.41
2022-08-05T04:59:22.429Z,100742.25
2022-08-05T05:02:07.625Z,100751.16
2022-08-05T05:04:38.120Z,100758.44
2022-08-05T05:07:05.313Z,100772.53
2022-08-05T05:09:37.493Z,100777.91
2022-08-05T05:12:05.255Z,100774.38
2022-08-05T05:14:33.025Z,100774.31
2022-08-05T05:17:03.572Z,100782.94
2022-08-05T05:19:36.822Z,100781.59
2022-08-05T05:22:22.661Z,100770.75
2022-08-05T05:25:01.428Z,100769.44
2022-08-05T05:27:48.579Z,100781.78
2022-08-05T05:30:29.830Z,100787.44
2022-08-05T05:33:00.548Z,100799.19
2022-08-05T05:35:31.624Z,100798.94
2022-08-05T05:38:06.407Z,100795.66
2022-08-05T05:40:36.299Z,100803.63
2022-08-05T05:43:03.262Z,100810.06
2022-08-05T05:45:30.003Z,100817.16
2022-08-05T05:48:07.140Z,100810.13
2022-08-05T05:50:43.857Z,100810.25
2022-08-05T05:53:21.123Z,100821.84
2022-08-05T05:55:51.769Z,100836.38
2022-08-05T05:58:30.257Z,100823.06
2022-08-05T06:01:04.896Z,100843.47
2022-08-05T06:04:01.199Z,100845.25
2022-08-05T06:06:30.994Z,100845.34
2022-08-05T06:09:00.414Z,100844.56
2022-08-05T06:11:29.009Z,100844.63
2022-08-05T06:13:56.301Z,100857.41
2022-08-05T06:16:28.194Z,100854.78
2022-08-05T06:19:01.198Z,100854.91
2022-08-05T06:21:36.569Z,100856.78
2022-08-05T06:24:11.989Z,100838.19
2022-08-05T06:26:51.256Z,100836.34
2022-08-05T06:29:43.206Z,100846.28
2022-08-05T06:32:20.984Z,100848.88
2022-08-05T06:34:48.617Z,100860.31
2022-08-05T06:37:56.725Z,100873.66
2022-08-05T06:40:07.498Z,100888.19
2022-08-05T06:42:34.220Z,100882.72
2022-08-05T06:45:05.291Z,100872.84
2022-08-05T06:48:37.045Z,100872.00
2022-08-05T06:50:19.797Z,100880.03
2022-08-05T06:52:58.839Z,100876.31
2022-08-05T06:55:36.422Z,100873.59
2022-08-05T06:58:30.182Z,100877.91
2022-08-05T07:00:50.988Z,100876.97
2022-08-05T07:03:17.644Z,100884.16
2022-08-05T07:05:46.367Z,100894.09
2022-08-05T07:08:13.337Z,100899.47
2022-08-05T07:10:53.364Z,100913.81
2022-08-05T07:13:57.769Z,100922.84
2022-08-05T07:17:58.471Z,100913.16
2022-08-05T07:20:05.757Z,100920.22
2022-08-05T07:22:17.828Z,100915.00
2022-08-05T07:24:52.519Z,100915.84
2022-08-05T07:27:20.333Z,100923.72
2022-08-05T07:30:21.744Z,100924.69
2022-08-05T07:32:36.864Z,100922.06
2022-08-05T07:36:01.554Z,100926.44
2022-08-05T07:37:57.748Z,100930.81
2022-08-05T07:40:33.006Z,100943.50
2022-08-05T07:43:04.675Z,100947.81
2022-08-05T07:45:56.379Z,100955.22
2022-08-05T07:49:00.634Z,100960.47
2022-08-05T07:51:23.455Z,100957.75
2022-08-05T07:53:59.250Z,100967.59
2022-08-05T07:56:59.841Z,100980.22
2022-08-05T07:59:15.398Z,100990.81
2022-08-05T08:01:52.273Z,100988.09
2022-08-05T08:04:38.144Z,100992.53
2022-08-05T08:07:07.464Z,101000.78
2022-08-05T08:09:37.544Z,100987.44
2022-08-05T08:12:14.353Z,100993.56
2022-08-05T08:14:47.808Z,101004.34
2022-08-05T08:17:16.077Z,101000.63
2022-08-05T08:20:20.973Z,100998.78
2022-08-05T08:22:35.327Z,101005.03
2022-08-05T08:25:03.413Z,101006.78
2022-08-05T08:27:44.768Z,101008.41
2022-08-05T08:30:29.918Z,101006.63
2022-08-05T08:33:02.483Z,101007.38
2022-08-05T08:35:34.791Z,101003.81
2022-08-05T08:38:07.658Z,101017.19
2022-08-05T08:40:35.299Z,101019.09
2022-08-05T08:44:56.523Z,101031.63
2022-08-05T08:45:53.114Z,101042.34
2022-08-05T08:48:37.998Z,101037.84
2022-08-05T08:52:02.121Z,101041.38
2022-08-05T08:53:54.141Z,101030.50
2022-08-05T08:56:22.183Z,101025.31
2022-08-05T08:58:49.591Z,101027.16
2022-08-05T09:01:19.146Z,101032.50
2022-08-05T09:03:52.872Z,101036.13
2022-08-05T09:06:24.280Z,101031.38
2022-08-05T09:08:55.043Z,101050.13
2022-08-05T09:11:51.090Z,101047.44
2022-08-05T09:14:56.727Z,101043.66
2022-08-05T09:16:59.927Z,101051.78
2022-08-05T09:19:28.033Z,101049.13
2022-08-05T09:22:23.457Z,101058.06
2022-08-05T09:24:58.542Z,101055.28
2022-08-05T09:28:05.496Z,101062.50
2022-08-05T09:30:24.161Z,101077.72
2022-08-05T09:32:51.612Z,101084.84
2022-08-05T09:35:26.509Z,101098.25
2022-08-05T09:38:17.020Z,101104.28
2022-08-05T09:40:52.571Z,101105.16
2022-08-05T09:43:41.277Z,101097.00
2022-08-05T09:46:27.306Z,101092.16
2022-08-05T09:49:06.771Z,101099.09
2022-08-05T09:51:38.187Z,101110.75
2022-08-05T09:54:08.535Z,101118.72
2022-08-05T09:56:38.169Z,101115.97
2022-08-05T09:59:07.237Z,101116.63
2022-08-05T10:01:36.320Z,101122.97
2022-08-05T10:04:13.781Z,101129.59
2022-08-05T10:06:58.944Z,101130.31
2022-08-05T10:09:29.552Z,101130.19
2022-08-05T10:12:30.392Z,101131.69
2022-08-05T10:15:20.137Z,101134.94
2022-08-05T10:18:09.328Z,101126.44
2022-08-05T10:20:41.796Z,101149.06
2022-08-05T10:23:34.658Z,101151.44
2022-08-05T10:26:00.025Z,101148.91
2022-08-05T10:28:29.087Z,101148.91
2022-08-05T10:32:53.300Z,101139.28
2022-08-05T10:33:46.179Z,101168.22
2022-08-05T10:36:23.448Z,101168.94
2022-08-05T10:38:58.984Z,101161.16
2022-08-05T10:41:46.496Z,101157.25
2022-08-05T10:44:18.697Z,101167.94
2022-08-05T10:46:51.029Z,101165.94
2022-08-05T10:49:26.832Z,101167.56
2022-08-05T10:52:00.312Z,101168.31
2022-08-05T10:54:56.083Z,101167.63
2022-08-05T10:57:29.409Z,101178.75
2022-08-05T11:00:23.126Z,101172.56
2022-08-05T11:02:59.035Z,101173.41
2022-08-05T11:06:03.805Z,101165.03
2022-08-05T11:08:39.329Z,101169.13
2022-08-05T11:11:52.836Z,101173.84
2022-08-05T11:17:59.193Z,101171.13
2022-08-05T11:20:36.740Z,101166.78
2022-08-05T11:23:25.416Z,101174.03
2022-08-05T11:26:11.965Z,101190.88
2022-08-05T11:28:43.163Z,101190.06
2022-08-05T11:31:10.247Z,101190.03
2022-08-05T11:33:46.527Z,101191.53
2022-08-05T11:36:52.790Z,101185.72
2022-08-05T11:39:49.373Z,101183.22
2022-08-05T11:42:24.180Z,101189.41
2022-08-05T11:47:49.951Z,101195.44
2022-08-05T11:50:14.308Z,101183.59
2022-08-05T11:52:41.674Z,101199.84
2022-08-05T11:55:11.448Z,101207.56
2022-08-05T11:58:10.385Z,101186.59
2022-08-05T12:00:32.512Z,101195.25
2022-08-05T12:03:28.586Z,101199.13
2022-08-05T12:06:06.457Z,101202.53
2022-08-05T12:08:49.754Z,101190.22
2022-08-05T12:11:22.946Z,101196.91
2022-08-05T12:13:58.737Z,101193.38
2022-08-05T12:16:45.237Z,101203.75
2022-08-05T12:20:26.398Z,101193.44
2022-08-05T12:21:59.313Z,101201.72
2022-08-05T12:24:28.019Z,101196.53
2022-08-05T12:26:54.687Z,101196.34
2022-08-05T12:29:26.937Z,101204.28
2022-08-05T12:31:54.678Z,101195.00
2022-08-05T12:34:26.755Z,101217.16
2022-08-05T12:36:54.832Z,101202.56
2022-08-05T12:39:28.182Z,101215.31
2022-08-05T12:42:08.993Z,101208.88
2022-08-05T12:44:35.903Z,101224.94
2022-08-05T12:47:03.630Z,101229.66
2022-08-05T12:50:02.017Z,101229.94
2022-08-05T12:52:35.269Z,101234.25
2022-08-05T12:55:25.536Z,101250.31
2022-08-05T12:58:38.350Z,101245.25
2022-08-05T13:01:59.713Z,101251.44
2022-08-05T13:03:41.668Z,101266.97
2022-08-05T13:06:16.362Z,101261.47
2022-08-05T13:08:49.108Z,101266.88
2022-08-05T13:11:57.963Z,101270.44
2022-08-05T13:14:19.672Z,101284.09
2022-08-05T13:16:57.601Z,101285.06
2022-08-05T13:19:27.126Z,101280.91
2022-08-05T13:22:14.080Z,101276.38
2022-08-05T13:24:58.092Z,101290.63
2022-08-05T13:27:37.718Z,101284.97
2022-08-05T13:30:35.399Z,101284.78
2022-08-05T13:32:54.208Z,101296.41
2022-08-05T13:35:31.204Z,101302.50
2022-08-05T13:38:11.529Z,101292.44
2022-08-05T13:40:51.678Z,101306.13
2022-08-05T13:43:22.006Z,101300.06
2022-08-05T13:45:49.181Z,101303.53
2022-08-05T13:48:58.484Z,101294.63
2022-08-05T13:51:09.895Z,101307.03
2022-08-05T13:53:48.058Z,101302.81
2022-08-05T13:56:18.488Z,101313.53
2022-08-05T13:58:53.342Z,101310.88
2022-08-05T14:01:25.912Z,101306.25
2022-08-05T14:04:38.816Z,101311.72
2022-08-05T14:07:12.152Z,101303.34
2022-08-05T14:09:52.405Z,101297.72
2022-08-05T14:12:32.035Z,101305.66
2022-08-05T14:15:05.959Z,101307.91
2022-08-05T14:17:48.728Z,101305.94
2022-08-05T14:20:17.485Z,101308.63
2022-08-05T14:22:49.953Z,101319.31
2022-08-05T14:25:22.005Z,101305.03
2022-08-05T14:27:49.610Z,101318.16
2022-08-05T14:30:20.249Z,101327.53
2022-08-05T14:32:47.916Z,101327.84
2022-08-05T14:35:14.589Z,101320.81
2022-08-05T14:37:45.651Z,101317.28
2022-08-05T14:40:16.897Z,101326.38
2022-08-05T14:42:44.236Z,101323.63
2022-08-05T14:45:13.647Z,101329.91
2022-08-05T14:48:05.119Z,101323.25
2022-08-05T14:50:31.057Z,101312.63
2022-08-05T14:53:00.784Z,101321.28
2022-08-05T14:55:28.563Z,101331.22
2022-08-05T14:58:11.124Z,101316.72
2022-08-05T15:00:39.792Z,101313.00
2022-08-05T15:03:34.000Z,101321.88
2022-08-05T15:06:08.410Z,101307.81
2022-08-05T15:08:59.752Z,101323.38
2022-08-05T15:11:51.828Z,101328.03
2022-08-05T15:14:20.272Z,101353.63
2022-08-05T15:17:01.170Z,101367.69
2022-08-05T15:19:30.110Z,101340.00
2022-08-05T15:21:57.993Z,101324.50
2022-08-05T15:24:30.303Z,101328.69
2022-08-05T15:27:01.259Z,101349.66
2022-08-05T15:29:30.564Z,101331.06
2022-08-05T15:32:09.015Z,101344.84
2022-08-05T15:34:35.866Z,101347.00
2022-08-05T15:37:06.828Z,101347.97
2022-08-05T15:40:59.706Z,101338.00
2022-08-05T15:42:50.065Z,101345.06
2022-08-05T15:45:15.995Z,101373.09
2022-08-05T15:47:43.571Z,101355.47
2022-08-05T15:50:15.468Z,101371.56
2022-08-05T15:52:52.886Z,101362.81
2022-08-05T15:55:24.858Z,101362.75
2022-08-05T15:58:08.035Z,101361.06
2022-08-05T16:00:50.376Z,101366.50
2022-08-05T16:03:21.467Z,101365.44
2022-08-05T16:05:52.452Z,101350.66
2022-08-05T16:08:19.492Z,101356.19
2022-08-05T16:10:46.342Z,101364.56
2022-08-05T16:13:19.393Z,101366.53
2022-08-05T16:15:51.920Z,101383.66
2022-08-05T16:18:18.911Z,101363.66
2022-08-05T16:20:46.359Z,101382.66
2022-08-05T16:23:13.101Z,101361.25
2022-08-05T16:25:40.334Z,101373.09
2022-08-05T16:28:09.790Z,101385.72
2022-08-05T16:30:37.519Z,101386.44
2022-08-05T16:33:04.575Z,101373.72
2022-08-05T16:35:32.588Z,101362.31
2022-08-05T16:38:16.394Z,101405.28
2022-08-05T16:40:55.186Z,101403.44
2022-08-05T16:43:30.250Z,101392.69
2022-08-05T16:46:04.522Z,101379.78
2022-08-05T16:48:36.385Z,101398.78
2022-08-05T16:51:08.649Z,101422.81
2022-08-05T16:54:05.212Z,101422.91
2022-08-05T16:56:26.082Z,101405.28
2022-08-05T16:58:52.846Z,101406.59
2022-08-05T17:01:20.313Z,101419.69
2022-08-05T17:03:47.442Z,101416.13
2022-08-05T17:06:16.636Z,101406.69
2022-08-05T17:08:53.189Z,101421.50
2022-08-05T17:11:25.742Z,101418.78
2022-08-05T17:14:00.509Z,101426.97
2022-08-05T17:16:37.169Z,101421.19
2022-08-05T17:19:09.354Z,101422.09
2022-08-05T17:21:37.487Z,101443.75
2022-08-05T17:24:18.450Z,101432.38
2022-08-05T17:26:53.570Z,101427.81
2022-08-05T17:29:32.840Z,101442.13
2022-08-05T17:32:06.729Z,101446.75
2022-08-05T17:34:35.407Z,101446.06
2022-08-05T17:37:02.070Z,101433.28
2022-08-05T17:39:34.733Z,101464.16
2022-08-05T17:42:18.133Z,101455.59
2022-08-05T17:44:50.465Z,101461.84
2022-08-05T17:47:23.075Z,101453.31
2022-08-05T17:50:04.102Z,101465.19
2022-08-05T17:52:52.874Z,101471.44
2022-08-05T17:55:22.474Z,101464.00
2022-08-05T17:57:54.292Z,101470.78
2022-08-05T18:00:20.966Z,101474.41
2022-08-05T18:02:55.216Z,101496.22
2022-08-05T18:05:22.060Z,101489.25
2022-08-05T18:07:48.897Z,101478.31
2022-08-05T18:10:21.177Z,101495.38
2022-08-05T18:12:49.360Z,101492.66
2022-08-05T18:15:16.217Z,101521.53
2022-08-05T18:18:01.034Z,101503.69
2022-08-05T18:20:31.940Z,101516.44
2022-08-05T18:23:09.374Z,101506.38
2022-08-05T18:25:38.895Z,101520.06
2022-08-05T18:28:06.652Z,101520.06
2022-08-05T18:30:34.434Z,101515.75
2022-08-05T18:33:01.924Z,101522.94
2022-08-05T18:35:59.804Z,101528.44
2022-08-05T18:38:19.281Z,101526.69
2022-08-05T18:41:53.172Z,101535.66
2022-08-05T18:43:42.585Z,101548.53
2022-08-05T18:46:10.090Z,101543.34
2022-08-05T18:48:41.687Z,101550.50
2022-08-05T18:52:06.809Z,101546.22
2022-08-05T18:54:14.656Z,101554.31
2022-08-05T18:56:41.886Z,101545.34
2022-08-05T18:59:43.808Z,101565.97
2022-08-05T19:02:04.925Z,101550.94
2022-08-05T19:05:02.560Z,101560.03
2022-08-05T19:07:45.302Z,101573.38
2022-08-05T19:10:13.536Z,101568.22
2022-08-05T19:12:40.489Z,101565.50
2022-08-05T19:15:36.753Z,101568.16
2022-08-05T19:18:10.325Z,101573.50
2022-08-05T19:20:41.401Z,101579.00
2022-08-05T19:24:06.053Z,101581.69
2022-08-05T19:26:01.084Z,101588.00
2022-08-05T19:28:30.810Z,101583.56
2022-08-05T19:30:57.703Z,101605.06
2022-08-05T19:33:34.002Z,101598.88
2022-08-05T19:36:06.067Z,101603.41
2022-08-05T19:38:36.774Z,101605.19
2022-08-05T19:41:09.057Z,101619.50
2022-08-05T19:44:06.850Z,101624.91
2022-08-05T19:46:29.446Z,101630.31
2022-08-05T19:49:02.869Z,101641.06
2022-08-05T19:51:56.447Z,101641.06
2022-08-05T19:54:21.670Z,101642.88
2022-08-05T19:56:54.272Z,101648.25
2022-08-05T19:59:53.973Z,101667.84
2022-08-05T20:02:10.693Z,101658.03
2022-08-05T20:04:38.026Z,101657.16
2022-08-05T20:07:13.382Z,101660.75
2022-08-05T20:09:54.602Z,101671.47
2022-08-05T20:12:24.906Z,101683.06
2022-08-05T20:14:52.844Z,101669.66
2022-08-05T20:17:23.453Z,101675.91
2022-08-05T20:19:51.979Z,101689.28
2022-08-05T20:22:26.763Z,101682.16
2022-08-05T20:24:54.851Z,101686.63
2022-08-05T20:27:26.802Z,101701.81
2022-08-05T20:29:58.531Z,101698.22
2022-08-05T20:32:27.173Z,101698.25
2022-08-05T20:34:54.652Z,101702.69
2022-08-05T20:38:06.742Z,101701.78
2022-08-05T20:40:09.706Z,101703.56
2022-08-05T20:42:36.491Z,101712.50
2022-08-05T20:45:04.515Z,101722.31
2022-08-05T20:47:33.274Z,101717.84
2022-08-05T20:50:01.955Z,101725.88
2022-08-05T20:52:29.956Z,101724.09
2022-08-05T20:55:55.201Z,101727.66
2022-08-05T20:57:44.989Z,101727.66
2022-08-05T21:00:34.996Z,101726.75
2022-08-05T21:03:07.345Z,101735.66
2022-08-05T21:05:48.199Z,101737.41
2022-08-05T21:08:26.780Z,101739.16
2022-08-05T21:11:09.046Z,101747.16
2022-08-05T21:14:02.250Z,101741.75
2022-08-05T21:16:30.884Z,101744.47
2022-08-05T21:19:01.742Z,101747.09
2022-08-05T21:21:38.805Z,101748.81
2022-08-05T21:24:12.720Z,101747.03
2022-08-05T21:26:41.462Z,101744.34
2022-08-05T21:29:12.647Z,101746.94
2022-08-05T21:31:46.579Z,101747.00
2022-08-05T21:34:17.744Z,101757.75
2022-08-05T21:36:49.083Z,101763.91
2022-08-05T21:39:16.978Z,101763.94
2022-08-05T21:42:01.211Z,101770.13
2022-08-05T21:44:31.092Z,101766.53
2022-08-05T21:47:01.753Z,101760.25
2022-08-05T21:50:00.092Z,101768.25
2022-08-05T21:52:27.695Z,101767.28
2022-08-05T21:54:57.124Z,101766.41
2022-08-05T21:57:32.653Z,101768.22
2022-08-05T22:00:06.116Z,101770.88
2022-08-05T22:02:43.030Z,101780.72
2022-08-05T22:05:11.708Z,101775.38
2022-08-05T22:07:59.546Z,101782.41
2022-08-05T22:10:31.058Z,101770.78
2022-08-05T22:13:08.820Z,101774.22
2022-08-05T22:16:01.813Z,101790.34
2022-08-05T22:18:25.617Z,101788.53
2022-08-05T22:20:53.206Z,101787.47
2022-08-05T22:24:00.824Z,101792.72
2022-08-05T22:26:50.016Z,101782.97
2022-08-05T22:29:26.867Z,101791.88
2022-08-05T22:31:59.715Z,101798.94
2022-08-05T22:34:31.302Z,101798.13
2022-08-05T22:36:59.310Z,101800.72
2022-08-05T22:39:33.252Z,101803.38
2022-08-05T22:42:11.799Z,101802.50
2022-08-05T22:44:48.552Z,101804.28
2022-08-05T22:47:30.107Z,101798.06
2022-08-05T22:50:19.893Z,101807.09
2022-08-05T22:52:45.750Z,101817.84
2022-08-05T22:55:19.103Z,101821.41
2022-08-05T22:57:49.017Z,101817.53
2022-08-05T23:00:17.885Z,101822.00
2022-08-05T23:02:48.134Z,101822.03
2022-08-05T23:05:16.189Z,101821.25
2022-08-05T23:07:48.673Z,101829.44
2022-08-05T23:10:20.305Z,101826.56
2022-08-05T23:12:55.183Z,101838.31
2022-08-05T23:15:29.419Z,101846.34
2022-08-05T23:18:03.621Z,101846.41
2022-08-05T23:20:37.525Z,101847.06
2022-08-05T23:23:08.024Z,101853.28
2022-08-05T23:25:52.961Z,101848.56
2022-08-05T23:28:27.684Z,101852.94
2022-08-05T23:31:16.062Z,101850.03
2022-08-05T23:34:03.764Z,101847.47
2022-08-05T23:36:38.443Z,101855.34
2022-08-05T23:39:05.741Z,101853.41
2022-08-05T23:41:41.113Z,101858.66
2022-08-05T23:44:16.613Z,101863.16
2022-08-05T23:46:43.831Z,101858.63
2022-08-05T23:49:16.116Z,101867.38
2022-08-05T23:52:05.766Z,101867.59
2022-08-05T23:54:38.084Z,101866.75
2022-08-05T23:57:06.030Z,101868.56
2022-08-05T23:59:37.620Z,101868.47
